Time;durP1;ratioP1;P1;durP2;ratioP2;P2;SDS_P1;SDS_P2;PMS_P1;PMS_P2;Temp;Humidity;BMP_temperature;BMP_pressure;BME280_temperature;BME280_humidity;BME280_pressure;Samples;Min_cycle;Max_cycle;Signal;HPM_P1;HPM_P2
2022/08/23 00:01:43;;;;;;;4.83;4.30;;;16.80;99.90;;;;;;4823576;29;20967;-84
2022/08/23 00:04:13;;;;;;;3.90;3.70;;;16.80;99.90;;;;;;4832799;29;20485;-84
2022/08/23 00:06:41;;;;;;;4.03;3.73;;;16.60;99.90;;;;;;4825405;29;20812;-85
2022/08/23 00:09:07;;;;;;;4.27;3.87;;;16.60;99.90;;;;;;4842955;29;20486;-84
2022/08/23 00:11:45;;;;;;;5.60;3.83;;;16.60;99.90;;;;;;4835070;29;20578;-85
2022/08/23 00:14:14;;;;;;;4.17;3.87;;;16.70;99.90;;;;;;4834704;29;20455;-84
2022/08/23 00:16:40;;;;;;;5.83;3.63;;;16.70;99.90;;;;;;4827134;29;20472;-84
2022/08/23 00:19:08;;;;;;;3.87;3.57;;;16.70;99.90;;;;;;4828784;29;20495;-84
2022/08/23 00:21:37;;;;;;;4.27;3.97;;;16.70;99.90;;;;;;4833676;29;20451;-84
2022/08/23 00:24:05;;;;;;;6.30;4.60;;;16.70;99.90;;;;;;4834933;29;20483;-84
2022/08/23 00:27:03;;;;;;;4.07;3.77;;;16.60;99.90;;;;;;4827642;29;20439;-83
2022/08/23 00:29:46;;;;;;;3.97;3.67;;;16.50;99.90;;;;;;4827921;29;20456;-84
2022/08/23 00:32:16;;;;;;;4.30;3.90;;;16.40;99.90;;;;;;4833361;29;20454;-84
2022/08/23 00:34:42;;;;;;;4.27;4.07;;;16.40;99.90;;;;;;4841312;29;20618;-84
2022/08/23 00:37:09;;;;;;;5.00;4.63;;;16.30;99.90;;;;;;4850694;29;20982;-85
2022/08/23 00:39:35;;;;;;;4.40;4.10;;;16.20;99.90;;;;;;4847149;29;20206;-85
2022/08/23 00:47:38;;;;;;;4.37;3.97;;;16.10;99.90;;;;;;4831863;29;20559;-84
2022/08/23 00:47:42;;;;;;;5.80;4.00;;;16.10;99.90;;;;;;4842612;29;20534;-83
2022/08/23 00:50:23;;;;;;;4.40;4.10;;;16.20;99.90;;;;;;4840575;29;20461;-84
2022/08/23 00:53:04;;;;;;;4.33;3.97;;;16.20;99.90;;;;;;4821972;29;20531;-84
2022/08/23 00:55:30;;;;;;;4.40;4.00;;;16.10;99.90;;;;;;4824092;29;21125;-84
2022/08/23 00:57:57;;;;;;;4.93;4.63;;;16.10;99.90;;;;;;4847312;29;20576;-84
2022/08/23 01:00:24;;;;;;;4.73;4.33;;;15.90;99.90;;;;;;4847925;29;20447;-84
2022/08/23 01:02:51;;;;;;;5.07;4.20;;;15.80;99.90;;;;;;4826969;29;20454;-84
2022/08/23 01:05:17;;;;;;;3.90;3.60;;;15.80;99.90;;;;;;4824775;29;20635;-84
2022/08/23 01:07:56;;;;;;;7.40;4.30;;;15.80;99.90;;;;;;4827991;29;21038;-84
2022/08/23 01:10:46;;;;;;;4.43;4.10;;;15.80;99.90;;;;;;4842659;29;20988;-84
2022/08/23 01:13:39;;;;;;;4.13;3.70;;;15.70;99.90;;;;;;4828959;29;20451;-84
2022/08/23 01:16:12;;;;;;;4.73;4.33;;;15.70;99.90;;;;;;4828113;29;21073;-84
2022/08/23 01:18:39;;;;;;;4.17;3.90;;;15.70;99.90;;;;;;4832071;29;20949;-84
2022/08/23 01:21:13;;;;;;;4.90;4.50;;;15.70;99.90;;;;;;4831393;29;20489;-83
2022/08/23 01:23:42;;;;;;;5.67;4.77;;;15.60;99.90;;;;;;4832332;29;20525;-84
2022/08/23 01:26:09;;;;;;;4.67;3.83;;;15.50;99.90;;;;;;4846052;29;20475;-84
2022/08/23 01:28:35;;;;;;;5.30;3.90;;;15.50;99.90;;;;;;4834937;29;20454;-84
2022/08/23 01:31:01;;;;;;;4.47;4.17;;;15.50;99.90;;;;;;4823697;29;21271;-84
2022/08/23 01:33:27;;;;;;;4.83;4.53;;;15.50;99.90;;;;;;4823096;29;21060;-84
2022/08/23 01:35:55;;;;;;;4.40;4.00;;;15.50;99.90;;;;;;4828150;29;20213;-83
2022/08/23 01:38:22;;;;;;;4.10;3.80;;;15.50;99.90;;;;;;4836517;29;20281;-84
2022/08/23 01:40:49;;;;;;;4.23;3.93;;;15.50;99.90;;;;;;4841529;29;20455;-83
2022/08/23 01:43:18;;;;;;;5.03;4.57;;;15.40;99.90;;;;;;4833718;29;20503;-83
2022/08/23 01:45:44;;;;;;;4.57;4.27;;;15.40;99.90;;;;;;4810520;29;20949;-83
2022/08/23 01:48:10;;;;;;;4.23;3.93;;;15.50;99.90;;;;;;4821163;29;20451;-83
2022/08/23 01:50:36;;;;;;;6.80;4.43;;;15.50;99.90;;;;;;4815441;29;20535;-83
2022/08/23 01:53:02;;;;;;;4.20;3.90;;;15.40;99.90;;;;;;4832188;29;20507;-83
2022/08/23 01:55:28;;;;;;;4.60;4.17;;;15.30;99.90;;;;;;4847414;29;20206;-83
2022/08/23 01:57:57;;;;;;;3.90;3.60;;;15.40;99.90;;;;;;4847614;29;20450;-83
2022/08/23 02:00:29;;;;;;;4.33;3.93;;;15.40;99.90;;;;;;4821369;29;20195;-83
2022/08/23 02:02:55;;;;;;;4.73;4.23;;;15.50;99.90;;;;;;4844906;29;20600;-83
2022/08/23 02:05:21;;;;;;;3.53;3.33;;;15.40;99.90;;;;;;4827690;29;20501;-83
2022/08/23 02:07:47;;;;;;;4.80;4.40;;;15.50;99.90;;;;;;4845916;29;20446;-84
2022/08/23 02:10:13;;;;;;;6.80;4.27;;;15.50;99.90;;;;;;4834847;29;20511;-84
2022/08/23 02:12:39;;;;;;;4.13;3.90;;;15.40;99.90;;;;;;4829214;29;20452;-83
2022/08/23 02:15:05;;;;;;;5.07;4.20;;;15.50;99.90;;;;;;4827170;29;20989;-83
2022/08/23 02:17:31;;;;;;;5.40;4.90;;;15.50;99.90;;;;;;4826092;29;20657;-83
2022/08/23 02:19:56;;;;;;;4.80;4.43;;;15.30;99.90;;;;;;4843299;29;20447;-84
2022/08/23 02:22:22;;;;;;;4.10;3.80;;;15.30;99.90;;;;;;4827044;29;20197;-83
2022/08/23 02:24:49;;;;;;;4.43;4.13;;;15.30;99.90;;;;;;4841434;29;20218;-83
2022/08/23 02:27:21;;;;;;;4.90;4.50;;;15.30;99.90;;;;;;4841328;29;20459;-83
2022/08/23 02:29:47;;;;;;;5.17;4.77;;;15.20;99.90;;;;;;4825524;29;20880;-84
2022/08/23 02:32:16;;;;;;;4.97;4.67;;;15.20;99.90;;;;;;4827693;29;21711;-84
2022/08/23 02:34:43;;;;;;;5.50;5.00;;;15.20;99.90;;;;;;4832697;29;20187;-85
2022/08/23 02:37:11;;;;;;;4.83;4.43;;;15.20;99.90;;;;;;4835759;29;20479;-85
2022/08/23 02:39:37;;;;;;;4.70;4.00;;;15.10;99.90;;;;;;4845669;29;20550;-85
2022/08/23 02:42:03;;;;;;;4.83;4.43;;;15.00;99.90;;;;;;4825888;29;20968;-85
2022/08/23 02:44:33;;;;;;;4.40;4.10;;;14.90;99.90;;;;;;4827796;29;20498;-85
2022/08/23 02:46:59;;;;;;;4.87;4.57;;;14.90;99.90;;;;;;4825232;29;20541;-84
2022/08/23 02:49:25;;;;;;;5.23;4.83;;;15.00;99.90;;;;;;4837197;29;20998;-84
2022/08/23 02:51:50;;;;;;;5.10;4.60;;;15.20;99.90;;;;;;4837153;29;20817;-84
2022/08/23 02:54:16;;;;;;;4.90;4.50;;;15.30;99.90;;;;;;4824866;29;20198;-84
2022/08/23 02:56:41;;;;;;;4.97;4.57;;;15.20;99.90;;;;;;4829524;29;20694;-84
2022/08/23 02:59:10;;;;;;;5.27;4.87;;;15.20;99.90;;;;;;4833736;29;20189;-85
2022/08/23 03:01:38;;;;;;;5.23;4.90;;;15.20;99.90;;;;;;4851250;29;20195;-84
2022/08/23 03:04:06;;;;;;;5.00;4.60;;;15.30;99.90;;;;;;4844772;29;20474;-84
2022/08/23 03:06:33;;;;;;;5.60;5.03;;;15.30;99.90;;;;;;4828707;29;20446;-84
2022/08/23 03:08:59;;;;;;;5.30;4.90;;;15.10;99.90;;;;;;4822435;29;20488;-85
2022/08/23 03:11:25;;;;;;;5.40;5.00;;;15.20;99.90;;;;;;4844504;29;21508;-84
2022/08/23 03:13:51;;;;;;;5.97;5.50;;;15.20;99.90;;;;;;4828159;29;20459;-85
2022/08/23 03:16:17;;;;;;;5.53;5.07;;;15.00;99.90;;;;;;4838082;29;20322;-84
2022/08/23 03:18:44;;;;;;;5.40;5.00;;;15.00;99.90;;;;;;4844261;29;20592;-84
2022/08/23 03:21:10;;;;;;;4.80;4.40;;;14.80;99.90;;;;;;4831400;29;20574;-84
2022/08/23 03:23:36;;;;;;;5.10;4.60;;;14.70;99.90;;;;;;4828902;29;20489;-85
2022/08/23 03:26:04;;;;;;;4.93;4.63;;;14.70;99.90;;;;;;4837956;29;20194;-84
2022/08/23 03:28:30;;;;;;;5.70;5.30;;;14.60;99.90;;;;;;4845667;29;20465;-84
2022/08/23 03:30:55;;;;;;;5.30;4.83;;;14.60;99.90;;;;;;4832482;29;20451;-85
2022/08/23 03:33:22;;;;;;;4.97;4.67;;;14.70;99.90;;;;;;4835327;29;20469;-85
2022/08/23 03:35:48;;;;;;;5.30;4.90;;;14.70;99.90;;;;;;4834787;29;20319;-84
2022/08/23 03:38:14;;;;;;;5.20;4.80;;;14.60;99.90;;;;;;4831533;29;21094;-84
2022/08/23 03:40:41;;;;;;;6.80;5.13;;;14.70;99.90;;;;;;4831775;29;20481;-84
2022/08/23 03:43:07;;;;;;;5.03;4.73;;;14.80;99.90;;;;;;4835950;29;20461;-85
2022/08/23 03:45:32;;;;;;;5.27;4.60;;;14.80;99.90;;;;;;4848385;29;20486;-85
2022/08/23 03:47:58;;;;;;;5.33;4.97;;;14.60;99.90;;;;;;4834852;29;20845;-85
2022/08/23 03:50:24;;;;;;;4.70;4.40;;;14.60;99.90;;;;;;4828110;29;20187;-85
2022/08/23 03:52:50;;;;;;;4.40;4.10;;;14.60;99.90;;;;;;4839628;29;20638;-85
2022/08/23 03:55:15;;;;;;;4.90;4.40;;;14.50;99.90;;;;;;4830441;29;20799;-85
2022/08/23 03:57:41;;;;;;;4.73;4.33;;;14.50;99.90;;;;;;4822296;29;20198;-84
2022/08/23 04:00:10;;;;;;;4.50;4.20;;;14.40;99.90;;;;;;4822839;29;20221;-85
2022/08/23 04:02:36;;;;;;;5.80;5.30;;;14.40;99.90;;;;;;4840081;29;20446;-84
2022/08/23 04:05:02;;;;;;;5.77;5.27;;;14.40;99.90;;;;;;4836740;29;20493;-84
2022/08/23 04:07:29;;;;;;;5.77;5.33;;;14.30;99.90;;;;;;4848090;29;20544;-84
2022/08/23 04:09:54;;;;;;;5.77;5.30;;;14.30;99.90;;;;;;4833018;29;20594;-84
2022/08/23 04:12:21;;;;;;;5.90;5.50;;;14.30;99.90;;;;;;4842593;29;20442;-85
2022/08/23 04:14:46;;;;;;;6.10;5.53;;;14.40;99.90;;;;;;4853050;29;20209;-84
2022/08/23 04:17:28;;;;;;;5.40;5.00;;;14.40;99.90;;;;;;4825812;29;20451;-85
2022/08/23 04:19:54;;;;;;;6.47;5.90;;;14.50;99.90;;;;;;4837120;29;20198;-85
2022/08/23 04:22:19;;;;;;;6.07;5.67;;;14.40;99.90;;;;;;4824173;29;20447;-84
2022/08/23 04:24:46;;;;;;;5.83;5.43;;;14.40;99.90;;;;;;4825479;29;20437;-85
2022/08/23 04:27:12;;;;;;;5.47;5.10;;;14.40;99.90;;;;;;4843519;29;20238;-85
2022/08/23 04:29:42;;;;;;;6.00;5.60;;;14.40;99.90;;;;;;4839989;29;20509;-86
2022/08/23 04:32:08;;;;;;;6.53;5.93;;;14.50;99.90;;;;;;4829553;29;20673;-85
2022/08/23 04:34:35;;;;;;;6.40;5.90;;;14.60;99.90;;;;;;4828004;29;20533;-90
2022/08/23 04:37:08;;;;;;;6.80;6.20;;;14.70;99.90;;;;;;4830338;29;20450;-92
2022/08/23 04:42:33;;;;;;;6.33;5.93;;;15.10;99.90;;;;;;4818463;29;20530;-94
2022/08/23 04:45:11;;;;;;;7.00;6.40;;;15.10;99.90;;;;;;4839949;29;20501;-96
2022/08/23 04:47:43;;;;;;;7.00;6.40;;;15.10;99.90;;;;;;4839503;29;20443;-96
2022/08/23 04:50:10;;;;;;;7.10;6.60;;;15.00;99.90;;;;;;4830214;29;20559;-95
2022/08/23 04:52:38;;;;;;;6.30;5.90;;;15.00;99.90;;;;;;4832410;29;20562;-93
2022/08/23 04:55:12;;;;;;;7.30;6.80;;;15.10;99.90;;;;;;4829240;29;20551;-91
2022/08/23 04:57:41;;;;;;;6.70;6.07;;;15.10;99.90;;;;;;4840705;29;20453;-94
2022/08/23 05:00:13;;;;;;;7.57;6.97;;;15.20;99.90;;;;;;4848008;29;20465;-96
2022/08/23 05:02:41;;;;;;;7.00;6.43;;;15.20;99.90;;;;;;4851247;29;20452;-92
2022/08/23 05:05:35;;;;;;;7.00;6.50;;;15.10;99.90;;;;;;4834632;29;20906;-92
2022/08/23 05:08:14;;;;;;;7.53;6.83;;;15.10;99.90;;;;;;4820253;29;20438;-95
2022/08/23 05:10:43;;;;;;;7.63;7.00;;;15.10;99.90;;;;;;4818799;29;20454;-92
2022/08/23 05:13:09;;;;;;;8.00;7.30;;;15.10;99.90;;;;;;4845421;29;21024;-94
2022/08/23 05:15:34;;;;;;;8.00;7.30;;;15.00;99.90;;;;;;4831401;29;20435;-92
2022/08/23 05:18:06;;;;;;;7.10;6.57;;;15.10;99.90;;;;;;4838984;29;20198;-93
2022/08/23 05:20:32;;;;;;;8.17;7.67;;;15.10;99.90;;;;;;4824703;29;20186;-95
2022/08/23 05:23:00;;;;;;;7.27;6.67;;;15.20;99.90;;;;;;4844672;29;20865;-96
2022/08/23 05:25:48;;;;;;;7.10;6.50;;;15.20;99.90;;;;;;4830472;29;21157;-92
2022/08/23 05:28:12;;;;;;;7.47;6.87;;;15.30;99.90;;;;;;4856491;29;20947;-94
2022/08/23 05:30:38;;;;;;;7.37;6.87;;;15.20;99.90;;;;;;4833252;29;20468;-95
2022/08/23 05:33:04;;;;;;;6.33;5.93;;;15.20;99.90;;;;;;4827267;29;20451;-92
2022/08/23 05:35:30;;;;;;;6.27;5.67;;;15.20;99.90;;;;;;4830178;29;20190;-93
2022/08/23 05:37:58;;;;;;;7.47;6.70;;;15.20;99.90;;;;;;4829408;29;20820;-91
2022/08/23 05:40:25;;;;;;;7.60;6.20;;;15.20;99.90;;;;;;4825576;29;20557;-91
2022/08/23 05:42:50;;;;;;;7.70;7.00;;;15.20;99.90;;;;;;4824044;29;20563;-93
2022/08/23 05:45:16;;;;;;;7.83;7.23;;;15.20;99.90;;;;;;4818113;29;20496;-91
2022/08/23 05:47:41;;;;;;;7.17;6.67;;;15.30;99.90;;;;;;4827045;29;20290;-92
2022/08/23 05:50:25;;;;;;;7.87;7.07;;;15.40;99.90;;;;;;4828339;29;20194;-92
2022/08/23 05:52:50;;;;;;;7.23;6.67;;;15.50;99.90;;;;;;4826245;29;20243;-92
2022/08/23 05:55:22;;;;;;;7.60;7.10;;;15.50;99.90;;;;;;4839557;29;20547;-92
2022/08/23 05:57:50;;;;;;;7.70;7.13;;;15.40;99.90;;;;;;4827729;29;20369;-91
2022/08/23 06:00:16;;;;;;;8.17;7.37;;;15.50;99.90;;;;;;4828305;29;20451;-91
2022/08/23 06:02:41;;;;;;;7.60;7.00;;;15.50;99.90;;;;;;4838322;29;20465;-92
2022/08/23 06:05:08;;;;;;;8.00;7.30;;;15.60;99.90;;;;;;4829396;29;20237;-92
2022/08/23 06:07:34;;;;;;;7.30;6.80;;;15.60;99.90;;;;;;4823787;29;20244;-93
2022/08/23 06:10:00;;;;;;;9.37;8.47;;;15.80;99.90;;;;;;4836930;29;20460;-92
2022/08/23 06:12:28;;;;;;;8.77;8.17;;;15.80;99.90;;;;;;4846127;29;20524;-94
2022/08/23 06:15:03;;;;;;;8.60;7.80;;;15.80;99.90;;;;;;4841655;29;20455;-95
2022/08/23 06:17:32;;;;;;;8.00;7.40;;;15.90;99.90;;;;;;4834374;29;20998;-92
2022/08/23 06:19:58;;;;;;;8.47;7.77;;;16.00;99.90;;;;;;4828858;29;20459;-92
2022/08/23 06:22:23;;;;;;;8.30;7.70;;;16.10;99.90;;;;;;4829942;29;20446;-92
2022/08/23 06:24:56;;;;;;;9.20;8.40;;;16.10;99.90;;;;;;4830050;29;20221;-92
2022/08/23 06:27:34;;;;;;;8.67;7.83;;;16.10;99.90;;;;;;4843956;29;20619;-91
2022/08/23 06:30:01;;;;;;;8.87;8.00;;;16.20;99.90;;;;;;4824563;29;20447;-92
2022/08/23 06:32:34;;;;;;;8.63;7.93;;;16.30;99.90;;;;;;4823838;29;20942;-92
2022/08/23 06:35:00;;;;;;;8.17;7.57;;;16.30;99.90;;;;;;4839285;29;20441;-86
2022/08/23 06:37:25;;;;;;;8.50;7.80;;;16.50;99.90;;;;;;4832014;29;20442;-86
2022/08/23 06:39:51;;;;;;;10.00;9.20;;;16.60;99.90;;;;;;4822015;29;20225;-85
2022/08/23 06:42:18;;;;;;;7.77;7.10;;;16.60;99.90;;;;;;4843502;29;20666;-87
2022/08/23 06:44:44;;;;;;;8.97;8.27;;;16.90;99.90;;;;;;4816174;29;20511;-87
2022/08/23 06:47:09;;;;;;;8.50;7.90;;;17.00;99.90;;;;;;4838047;29;20806;-88
2022/08/23 06:49:35;;;;;;;8.07;7.47;;;17.00;99.90;;;;;;4817188;29;20276;-88
2022/08/23 06:52:03;;;;;;;7.77;7.17;;;17.10;99.90;;;;;;4839087;29;20213;-88
2022/08/23 06:54:31;;;;;;;7.73;7.13;;;17.20;99.90;;;;;;4850136;29;20270;-88
2022/08/23 06:56:58;;;;;;;7.37;6.73;;;17.30;99.90;;;;;;4834693;29;20438;-88
2022/08/23 06:59:23;;;;;;;7.33;6.63;;;17.40;99.90;;;;;;4830492;29;20547;-87
2022/08/23 07:01:49;;;;;;;7.13;6.63;;;17.70;99.90;;;;;;4846943;29;20443;-88
2022/08/23 07:04:19;;;;;;;7.67;6.87;;;17.90;99.90;;;;;;4848211;29;20226;-88
2022/08/23 07:06:45;;;;;;;7.37;6.83;;;18.00;99.90;;;;;;4845736;29;20190;-89
2022/08/23 07:09:12;;;;;;;6.60;6.00;;;18.20;99.90;;;;;;4833674;29;20454;-86
2022/08/23 07:11:38;;;;;;;6.53;5.97;;;18.20;99.90;;;;;;4829537;29;20368;-88
2022/08/23 07:14:06;;;;;;;6.93;6.40;;;18.30;99.90;;;;;;4849508;29;20527;-88
2022/08/23 07:16:39;;;;;;;6.93;6.23;;;18.50;99.90;;;;;;4829763;29;20438;-88
2022/08/23 07:19:05;;;;;;;6.20;5.70;;;18.60;99.90;;;;;;4827758;29;20454;-88
2022/08/23 07:21:30;;;;;;;6.30;5.80;;;18.60;99.90;;;;;;4833486;29;20454;-88
2022/08/23 07:23:57;;;;;;;5.50;5.10;;;18.70;99.90;;;;;;4831100;29;20542;-86
2022/08/23 07:26:23;;;;;;;5.97;5.40;;;18.80;99.90;;;;;;4846096;29;20526;-86
2022/08/23 07:28:56;;;;;;;5.23;4.93;;;18.90;99.90;;;;;;4846359;29;20480;-87
2022/08/23 07:31:29;;;;;;;5.07;4.67;;;19.10;99.90;;;;;;4848461;29;20422;-86
2022/08/23 07:33:59;;;;;;;5.67;5.17;;;19.10;99.90;;;;;;4824994;29;20862;-85
2022/08/23 07:36:26;;;;;;;5.53;5.03;;;19.10;99.90;;;;;;4827505;29;20639;-87
2022/08/23 07:38:52;;;;;;;6.40;4.97;;;19.20;99.90;;;;;;4840185;29;20462;-87
2022/08/23 07:41:19;;;;;;;5.70;4.90;;;19.30;99.90;;;;;;4831079;29;20443;-86
2022/08/23 07:43:45;;;;;;;4.97;4.47;;;19.50;99.90;;;;;;4830002;29;20830;-87
2022/08/23 07:46:11;;;;;;;5.20;4.70;;;19.70;99.90;;;;;;4826364;29;20474;-86
2022/08/23 07:48:38;;;;;;;5.20;4.80;;;19.90;99.90;;;;;;4821902;29;20474;-86
2022/08/23 07:51:06;;;;;;;5.67;5.17;;;20.00;99.90;;;;;;4829583;29;20816;-87
2022/08/23 07:53:31;;;;;;;4.90;4.00;;;20.10;99.90;;;;;;4820994;29;20440;-87
2022/08/23 07:55:57;;;;;;;5.10;4.60;;;20.20;99.90;;;;;;4830597;29;20918;-87
2022/08/23 07:58:24;;;;;;;5.43;4.93;;;20.20;99.90;;;;;;4826586;29;20191;-85
2022/08/23 08:00:53;;;;;;;5.63;4.50;;;20.20;99.90;;;;;;4818879;29;20222;-87
2022/08/23 08:03:21;;;;;;;4.43;4.13;;;20.40;99.90;;;;;;4819784;29;21202;-86
2022/08/23 08:05:47;;;;;;;5.00;4.60;;;20.50;99.90;;;;;;4833578;29;20491;-86
2022/08/23 08:08:12;;;;;;;4.63;4.23;;;20.70;99.90;;;;;;4846393;29;20807;-87
2022/08/23 08:10:40;;;;;;;5.10;4.70;;;20.80;99.90;;;;;;4829872;29;20206;-87
2022/08/23 08:13:07;;;;;;;4.00;3.67;;;21.00;99.20;;;;;;4832557;29;20199;-87
2022/08/23 08:15:34;;;;;;;4.20;3.80;;;21.10;98.80;;;;;;4846999;29;20458;-87
2022/08/23 08:18:00;;;;;;;4.83;4.43;;;21.40;98.60;;;;;;4833843;29;20507;-87
2022/08/23 08:20:27;;;;;;;4.47;4.03;;;21.50;97.70;;;;;;4833198;29;20552;-87
2022/08/23 08:22:56;;;;;;;4.47;4.17;;;21.50;98.20;;;;;;4847985;29;20522;-87
2022/08/23 08:25:22;;;;;;;5.03;4.60;;;21.70;97.00;;;;;;4836633;29;20574;-87
2022/08/23 08:27:48;;;;;;;4.50;4.10;;;21.70;97.90;;;;;;4833341;29;20791;-87
2022/08/23 08:30:13;;;;;;;3.70;3.40;;;21.80;96.60;;;;;;4835913;29;20723;-87
2022/08/23 08:32:40;;;;;;;4.10;3.80;;;21.80;96.50;;;;;;4853774;29;20201;-87
2022/08/23 08:35:07;;;;;;;3.67;3.47;;;21.90;96.00;;;;;;4842947;29;20190;-87
2022/08/23 08:37:35;;;;;;;3.90;3.50;;;21.70;96.80;;;;;;4854130;29;20431;-87
2022/08/23 08:40:01;;;;;;;6.67;4.43;;;21.90;95.70;;;;;;4831475;29;20487;-87
2022/08/23 08:42:51;;;;;;;3.60;3.40;;;22.10;95.60;;;;;;4851168;29;20450;-87
2022/08/23 08:45:25;;;;;;;4.37;3.67;;;22.10;95.40;;;;;;4848039;29;20978;-87
2022/08/23 08:48:12;;;;;;;4.00;3.70;;;22.20;96.00;;;;;;4833973;29;20455;-88
2022/08/23 08:50:44;;;;;;;4.20;3.80;;;22.30;96.20;;;;;;4848200;29;20643;-87
2022/08/23 08:53:21;;;;;;;4.03;3.63;;;22.50;96.10;;;;;;4832874;29;20435;-87
2022/08/23 08:55:52;;;;;;;4.90;4.00;;;22.70;96.30;;;;;;4824962;29;20450;-87
2022/08/23 08:58:28;;;;;;;3.83;3.53;;;22.80;96.70;;;;;;4829744;29;20783;-87
2022/08/23 09:00:54;;;;;;;3.40;3.20;;;23.10;96.60;;;;;;4826426;29;20462;-88
2022/08/23 09:03:21;;;;;;;4.00;3.80;;;23.20;95.40;;;;;;4841181;29;20447;-87
2022/08/23 09:06:02;;;;;;;3.83;3.47;;;23.50;95.40;;;;;;4838814;29;20514;-87
2022/08/23 09:08:52;;;;;;;4.13;3.67;;;23.70;94.50;;;;;;4847044;29;20454;-87
2022/08/23 09:11:21;;;;;;;3.90;3.70;;;23.90;95.00;;;;;;4826304;29;20619;-87
2022/08/23 09:13:55;;;;;;;3.40;3.20;;;23.70;95.00;;;;;;4848747;29;20792;-87
2022/08/23 09:16:52;;;;;;;4.50;4.10;;;23.60;95.10;;;;;;4834121;29;20481;-87
2022/08/23 09:19:20;;;;;;;4.00;3.70;;;23.50;94.40;;;;;;4826578;29;20451;-87
2022/08/23 09:22:02;;;;;;;4.93;3.73;;;23.80;96.20;;;;;;4835437;29;20495;-87
2022/08/23 09:24:29;;;;;;;4.13;3.93;;;24.20;96.40;;;;;;4848546;29;20585;-86
2022/08/23 09:26:55;;;;;;;4.10;3.70;;;24.40;96.20;;;;;;4833973;29;20998;-87
2022/08/23 09:29:30;;;;;;;4.17;3.37;;;24.50;95.50;;;;;;4847650;29;21049;-87
2022/08/23 09:32:01;;;;;;;5.07;3.70;;;24.80;95.10;;;;;;4845992;29;20227;-87
2022/08/23 09:34:35;;;;;;;4.20;3.90;;;24.90;93.40;;;;;;4848209;29;20517;-87
2022/08/23 09:37:08;;;;;;;3.70;3.50;;;25.00;95.20;;;;;;4847083;29;20446;-87
2022/08/23 09:39:37;;;;;;;4.40;4.00;;;25.00;94.20;;;;;;4828889;29;21887;-87
2022/08/23 09:42:08;;;;;;;3.60;3.30;;;24.90;93.60;;;;;;4829398;29;20450;-87
2022/08/23 09:44:42;;;;;;;3.43;3.13;;;25.00;92.10;;;;;;4832100;29;20474;-87
2022/08/23 09:47:13;;;;;;;3.63;3.33;;;25.30;91.60;;;;;;4831461;29;20447;-87
2022/08/23 09:49:41;;;;;;;4.10;3.60;;;25.30;92.00;;;;;;4829133;29;20449;-87
2022/08/23 09:52:33;;;;;;;3.13;2.90;;;25.50;90.10;;;;;;4835873;29;20451;-87
2022/08/23 09:55:02;;;;;;;4.27;3.20;;;25.90;89.50;;;;;;4830712;29;20468;-87
2022/08/23 09:57:32;;;;;;;3.27;2.97;;;26.00;88.80;;;;;;4833514;29;20779;-86
2022/08/23 10:00:16;;;;;;;3.00;2.90;;;26.00;88.50;;;;;;4839692;29;20442;-85
2022/08/23 10:02:42;;;;;;;2.93;2.70;;;26.00;83.40;;;;;;4823789;29;20562;-86
2022/08/23 10:05:14;;;;;;;3.80;3.40;;;26.30;82.80;;;;;;4819175;29;20487;-92
2022/08/23 10:07:44;;;;;;;4.00;3.47;;;26.30;82.70;;;;;;4833945;29;20206;-91
2022/08/23 10:10:14;;;;;;;4.97;4.53;;;26.20;80.10;;;;;;4819343;29;20455;-91
2022/08/23 10:12:43;;;;;;;3.20;3.00;;;26.30;81.30;;;;;;4827512;29;20451;-93
2022/08/23 10:15:09;;;;;;;3.13;2.93;;;26.60;82.80;;;;;;4825929;29;20800;-91
2022/08/23 10:18:07;;;;;;;4.57;2.97;;;26.70;79.60;;;;;;4839060;29;20443;-92
2022/08/23 10:20:45;;;;;;;2.90;2.70;;;26.60;80.90;;;;;;4804803;29;20199;-92
2022/08/23 10:23:20;;;;;;;3.97;2.90;;;26.50;74.00;;;;;;4841480;29;20451;-93
2022/08/23 10:25:56;;;;;;;3.17;2.97;;;26.60;78.60;;;;;;4822398;29;20576;-93
2022/08/23 10:32:09;;;;;;;3.13;2.70;;;26.90;69.10;;;;;;4841419;29;20473;-92
2022/08/23 10:34:59;;;;;;;2.93;2.40;;;27.00;71.80;;;;;;4836660;29;20479;-93
2022/08/23 10:38:01;;;;;;;3.07;2.87;;;27.10;71.10;;;;;;4840620;29;20965;-93
2022/08/23 10:40:33;;;;;;;3.10;2.80;;;27.30;67.10;;;;;;4823179;29;20988;-92
2022/08/23 10:43:14;;;;;;;2.90;2.70;;;26.60;65.50;;;;;;4829070;29;20826;-92
2022/08/23 10:45:45;;;;;;;3.00;2.60;;;26.70;70.20;;;;;;4841912;29;20493;-93
2022/08/23 10:48:13;;;;;;;2.87;2.43;;;26.90;65.00;;;;;;4824550;29;20446;-93
2022/08/23 10:50:58;;;;;;;2.83;2.57;;;27.10;64.00;;;;;;4823665;29;20558;-93
2022/08/23 10:53:38;;;;;;;3.40;2.93;;;27.40;66.80;;;;;;4841917;29;20451;-92
2022/08/23 10:56:06;;;;;;;3.43;2.90;;;27.80;65.80;;;;;;4825402;29;20802;-91
2022/08/23 10:58:46;;;;;;;3.40;2.97;;;28.10;60.80;;;;;;4827654;29;20529;-92
2022/08/23 11:01:20;;;;;;;3.17;2.93;;;27.50;62.90;;;;;;4828976;29;20435;-93
2022/08/23 11:03:57;;;;;;;4.00;2.80;;;27.90;70.20;;;;;;4835117;29;20451;-92
2022/08/23 11:06:35;;;;;;;3.57;2.90;;;28.10;66.30;;;;;;4844490;29;20953;-91
2022/08/23 11:09:18;;;;;;;2.90;2.70;;;27.70;60.90;;;;;;4831198;29;20431;-93
2022/08/23 11:12:05;;;;;;;3.10;2.90;;;28.10;67.20;;;;;;4848165;29;20458;-93
2022/08/23 11:14:44;;;;;;;3.27;2.93;;;28.20;67.20;;;;;;4828277;29;20454;-93
2022/08/23 11:17:22;;;;;;;3.87;3.07;;;28.30;66.40;;;;;;4828820;29;20458;-94
2022/08/23 11:19:53;;;;;;;4.03;2.77;;;28.30;69.60;;;;;;4829599;29;21240;-93
2022/08/23 11:22:24;;;;;;;4.63;2.90;;;28.10;57.60;;;;;;4846783;29;20511;-92
2022/08/23 11:24:54;;;;;;;3.80;2.67;;;27.50;59.70;;;;;;4830732;29;20490;-92
2022/08/23 11:27:31;;;;;;;3.20;2.93;;;27.70;60.60;;;;;;4847870;29;20435;-93
2022/08/23 11:30:17;;;;;;;3.10;2.80;;;28.10;64.70;;;;;;4832372;29;20546;-92
2022/08/23 11:32:44;;;;;;;3.20;2.90;;;28.20;63.20;;;;;;4826472;29;20447;-91
2022/08/23 11:35:37;;;;;;;3.20;3.00;;;28.60;63.60;;;;;;4826245;29;20496;-92
2022/08/23 11:38:04;;;;;;;3.00;2.80;;;28.90;64.20;;;;;;4833989;29;20438;-93
2022/08/23 11:40:59;;;;;;;4.93;2.80;;;28.70;62.20;;;;;;4828016;29;20466;-91
2022/08/23 11:43:35;;;;;;;2.93;2.67;;;28.60;65.20;;;;;;4820234;29;20439;-91
2022/08/23 11:46:25;;;;;;;4.03;3.13;;;28.70;58.80;;;;;;4833153;29;20470;-91
2022/08/23 11:49:12;;;;;;;2.80;2.60;;;29.00;63.10;;;;;;4829579;29;20452;-94
2022/08/23 11:52:03;;;;;;;2.60;2.50;;;29.00;62.40;;;;;;4830005;29;20479;-91
2022/08/23 11:55:23;;;;;;;3.07;2.77;;;29.20;55.40;;;;;;4830435;29;20480;-91
2022/08/23 11:58:25;;;;;;;2.87;2.70;;;29.10;57.90;;;;;;4807464;29;21785;-92
2022/08/23 12:00:56;;;;;;;3.23;2.93;;;29.20;61.60;;;;;;4848590;29;22018;-93
2022/08/23 12:03:54;;;;;;;3.00;2.70;;;29.30;63.00;;;;;;4842207;29;20879;-92
2022/08/23 12:06:41;;;;;;;3.20;2.40;;;29.40;63.70;;;;;;4826565;29;20458;-92
2022/08/23 12:09:23;;;;;;;2.77;2.57;;;29.60;60.60;;;;;;4828588;29;21129;-92
2022/08/23 12:11:55;;;;;;;2.53;2.33;;;29.60;57.00;;;;;;4819672;29;20542;-90
2022/08/23 12:14:35;;;;;;;2.37;2.20;;;29.50;54.70;;;;;;4841432;29;20447;-91
2022/08/23 12:17:49;;;;;;;2.87;2.67;;;29.40;54.60;;;;;;4819770;29;20451;-92
2022/08/23 12:20:28;;;;;;;3.10;2.80;;;29.50;61.30;;;;;;4826332;29;21519;-92
2022/08/23 12:23:06;;;;;;;3.17;2.87;;;29.50;59.30;;;;;;4845618;29;20466;-92
2022/08/23 12:25:33;;;;;;;3.93;3.27;;;29.50;58.20;;;;;;4820550;29;20517;-90
2022/08/23 12:28:18;;;;;;;4.23;3.30;;;29.10;58.70;;;;;;4839449;29;21474;-90
2022/08/23 12:31:34;;;;;;;2.67;2.47;;;29.00;58.20;;;;;;4825182;29;20467;-90
2022/08/23 12:34:05;;;;;;;2.83;2.63;;;29.20;58.10;;;;;;4806999;29;21023;-92
2022/08/23 12:36:55;;;;;;;4.10;3.37;;;29.40;56.60;;;;;;4799163;29;20459;-91
2022/08/23 12:39:38;;;;;;;3.07;2.70;;;29.70;59.40;;;;;;4824404;29;20989;-92
2022/08/23 12:42:14;;;;;;;4.10;2.80;;;29.80;57.50;;;;;;4829739;29;20446;-92
2022/08/23 12:44:44;;;;;;;3.70;3.10;;;29.70;59.70;;;;;;4826892;29;20486;-92
2022/08/23 12:47:17;;;;;;;3.63;2.53;;;29.80;60.20;;;;;;4823301;29;20431;-92
2022/08/23 12:49:54;;;;;;;3.10;2.90;;;29.90;58.50;;;;;;4823149;29;20547;-92
2022/08/23 12:52:25;;;;;;;3.53;3.33;;;30.30;57.10;;;;;;4826787;29;20538;-91
2022/08/23 12:54:53;;;;;;;3.30;2.73;;;30.50;59.60;;;;;;4824427;29;20479;-93
2022/08/23 12:57:38;;;;;;;2.97;2.77;;;30.40;58.00;;;;;;4826860;29;20458;-92
2022/08/23 13:00:09;;;;;;;3.57;2.90;;;30.00;59.00;;;;;;4826736;29;20469;-93
2022/08/23 13:02:37;;;;;;;3.03;2.83;;;29.40;54.60;;;;;;4839109;29;20833;-92
2022/08/23 13:05:18;;;;;;;2.97;2.63;;;29.40;55.40;;;;;;4828056;29;20597;-92
2022/08/23 13:07:44;;;;;;;3.27;3.03;;;29.70;57.70;;;;;;4836084;29;20451;-92
2022/08/23 13:10:10;;;;;;;2.90;2.70;;;29.70;59.10;;;;;;4819103;29;21474;-92
2022/08/23 13:12:37;;;;;;;2.90;2.70;;;29.80;58.00;;;;;;4825276;29;20714;-91
2022/08/23 13:15:04;;;;;;;2.80;2.60;;;30.00;56.10;;;;;;4826858;29;20534;-92
2022/08/23 13:17:35;;;;;;;2.80;2.60;;;30.20;56.10;;;;;;4821289;29;20444;-90
2022/08/23 13:20:01;;;;;;;2.97;2.77;;;30.70;55.70;;;;;;4827749;29;21076;-92